Fond du Lac, Wisconsin
Current Conditions -  °F | °C
As of 9:53 AM on Monday 24 Nov 2014 (Local Time) from KFLD Reporting Station
Overcast Overcast  
Wind Chill: 34°   Ceiling: 600
Heat Index: 41°   Visibility: 10mi
Dew Point: 38°   Wind: 12mph
Humidity: 89%   Direction: 280°W
Pressure: 29.08"   Gusts: 18mph
Location:  43.77°N, 88.48°W
Report Text: KFLD 241553Z AUTO 28010G16KT 10SM OVC006 05/03 A2908 RMK AO2 SLP852 T00500033
Loading
Personal Weather Stations






























Interactive Weather Map New forecast layout! Learn more

10-Day Weather Forecast

Advertisements
Track Severe Weather on mobile